sensor_id;sensor_type;location;lat;lon;timestamp;P1;durP1;ratioP1;P2;durP2;ratioP2
43837;SDS011;65998;46.256;7.534;2024-02-14T00:00:04;5.10;;;1.02;;
43837;SDS011;65998;46.256;7.534;2024-02-14T00:02:30;1.73;;;0.57;;
43837;SDS011;65998;46.256;7.534;2024-02-14T00:04:56;2.40;;;0.50;;
43837;SDS011;65998;46.256;7.534;2024-02-14T00:07:22;4.13;;;0.80;;
43837;SDS011;65998;46.256;7.534;2024-02-14T00:09:48;2.83;;;0.90;;
43837;SDS011;65998;46.256;7.534;2024-02-14T00:12:14;4.25;;;0.80;;
43837;SDS011;65998;46.256;7.534;2024-02-14T00:14:40;2.07;;;0.40;;
43837;SDS011;65998;46.256;7.534;2024-02-14T00:17:05;1.88;;;0.43;;
43837;SDS011;65998;46.256;7.534;2024-02-14T00:19:31;2.10;;;0.43;;
43837;SDS011;65998;46.256;7.534;2024-02-14T00:21:57;2.83;;;0.80;;
43837;SDS011;65998;46.256;7.534;2024-02-14T00:24:23;4.97;;;1.48;;
43837;SDS011;65998;46.256;7.534;2024-02-14T00:26:50;7.45;;;2.10;;
43837;SDS011;65998;46.256;7.534;2024-02-14T00:29:16;2.73;;;0.50;;
43837;SDS011;65998;46.256;7.534;2024-02-14T00:31:41;2.17;;;0.60;;
43837;SDS011;65998;46.256;7.534;2024-02-14T00:34:07;2.67;;;0.47;;
43837;SDS011;65998;46.256;7.534;2024-02-14T00:36:33;1.50;;;0.30;;
43837;SDS011;65998;46.256;7.534;2024-02-14T00:38:59;1.92;;;0.40;;
43837;SDS011;65998;46.256;7.534;2024-02-14T00:41:25;1.83;;;0.30;;
43837;SDS011;65998;46.256;7.534;2024-02-14T00:43:51;2.67;;;0.50;;
43837;SDS011;65998;46.256;7.534;2024-02-14T00:46:16;2.00;;;0.50;;
43837;SDS011;65998;46.256;7.534;2024-02-14T00:48:42;2.53;;;0.50;;
43837;SDS011;65998;46.256;7.534;2024-02-14T00:51:08;1.55;;;0.30;;
43837;SDS011;65998;46.256;7.534;2024-02-14T00:53:34;2.83;;;0.40;;
43837;SDS011;65998;46.256;7.534;2024-02-14T00:56:00;1.67;;;0.30;;
43837;SDS011;65998;46.256;7.534;2024-02-14T00:58:26;1.30;;;0.20;;
43837;SDS011;65998;46.256;7.534;2024-02-14T01:00:51;2.33;;;0.50;;
43837;SDS011;65998;46.256;7.534;2024-02-14T01:03:17;2.17;;;0.40;;
43837;SDS011;65998;46.256;7.534;2024-02-14T01:05:43;1.43;;;0.30;;
43837;SDS011;65998;46.256;7.534;2024-02-14T01:08:09;1.90;;;0.50;;
43837;SDS011;65998;46.256;7.534;2024-02-14T01:10:35;1.80;;;0.30;;
43837;SDS011;65998;46.256;7.534;2024-02-14T01:13:02;1.83;;;0.33;;
43837;SDS011;65998;46.256;7.534;2024-02-14T01:15:27;1.95;;;0.40;;
43837;SDS011;65998;46.256;7.534;2024-02-14T01:17:53;2.13;;;0.40;;
43837;SDS011;65998;46.256;7.534;2024-02-14T01:20:19;2.10;;;0.40;;
43837;SDS011;65998;46.256;7.534;2024-02-14T01:22:45;1.85;;;0.40;;
43837;SDS011;65998;46.256;7.534;2024-02-14T01:25:10;1.93;;;0.40;;
43837;SDS011;65998;46.256;7.534;2024-02-14T01:27:39;1.90;;;0.47;;
43837;SDS011;65998;46.256;7.534;2024-02-14T01:30:05;1.63;;;0.30;;
43837;SDS011;65998;46.256;7.534;2024-02-14T01:32:31;1.52;;;0.30;;
43837;SDS011;65998;46.256;7.534;2024-02-14T01:34:57;2.77;;;0.33;;
43837;SDS011;65998;46.256;7.534;2024-02-14T01:37:23;1.23;;;0.20;;
43837;SDS011;65998;46.256;7.534;2024-02-14T01:39:49;1.70;;;0.40;;
43837;SDS011;65998;46.256;7.534;2024-02-14T01:42:14;1.83;;;0.30;;
43837;SDS011;65998;46.256;7.534;2024-02-14T01:44:40;1.93;;;0.27;;
43837;SDS011;65998;46.256;7.534;2024-02-14T01:47:06;2.10;;;0.30;;
43837;SDS011;65998;46.256;7.534;2024-02-14T01:49:33;1.80;;;0.30;;
43837;SDS011;65998;46.256;7.534;2024-02-14T01:52:01;2.30;;;0.40;;
43837;SDS011;65998;46.256;7.534;2024-02-14T01:54:28;1.90;;;0.30;;
43837;SDS011;65998;46.256;7.534;2024-02-14T01:56:55;2.10;;;0.17;;
43837;SDS011;65998;46.256;7.534;2024-02-14T01:59:23;2.08;;;0.30;;
43837;SDS011;65998;46.256;7.534;2024-02-14T02:01:49;3.33;;;0.50;;
43837;SDS011;65998;46.256;7.534;2024-02-14T02:04:16;5.53;;;0.60;;
43837;SDS011;65998;46.256;7.534;2024-02-14T02:06:41;2.95;;;0.35;;
43837;SDS011;65998;46.256;7.534;2024-02-14T02:09:07;2.05;;;0.20;;
43837;SDS011;65998;46.256;7.534;2024-02-14T02:11:44;1.73;;;0.30;;
43837;SDS011;65998;46.256;7.534;2024-02-14T02:14:11;1.70;;;0.30;;
43837;SDS011;65998;46.256;7.534;2024-02-14T02:16:37;2.28;;;0.50;;
43837;SDS011;65998;46.256;7.534;2024-02-14T02:19:02;2.33;;;0.40;;
43837;SDS011;65998;46.256;7.534;2024-02-14T02:21:28;1.70;;;0.35;;
43837;SDS011;65998;46.256;7.534;2024-02-14T02:23:54;2.47;;;0.40;;
43837;SDS011;65998;46.256;7.534;2024-02-14T02:26:20;2.03;;;0.22;;
43837;SDS011;65998;46.256;7.534;2024-02-14T02:28:46;1.23;;;0.20;;
43837;SDS011;65998;46.256;7.534;2024-02-14T02:31:12;2.05;;;0.40;;
43837;SDS011;65998;46.256;7.534;2024-02-14T02:33:37;2.35;;;0.40;;
43837;SDS011;65998;46.256;7.534;2024-02-14T02:36:03;2.53;;;0.50;;
43837;SDS011;65998;46.256;7.534;2024-02-14T02:38:29;2.60;;;0.37;;
43837;SDS011;65998;46.256;7.534;2024-02-14T02:40:55;3.08;;;0.60;;
43837;SDS011;65998;46.256;7.534;2024-02-14T02:43:21;3.70;;;0.50;;
43837;SDS011;65998;46.256;7.534;2024-02-14T02:45:47;2.58;;;0.50;;
43837;SDS011;65998;46.256;7.534;2024-02-14T02:48:12;2.45;;;0.38;;
43837;SDS011;65998;46.256;7.534;2024-02-14T02:50:38;2.10;;;0.30;;
43837;SDS011;65998;46.256;7.534;2024-02-14T02:53:04;4.22;;;0.30;;
43837;SDS011;65998;46.256;7.534;2024-02-14T02:55:30;1.73;;;0.30;;
43837;SDS011;65998;46.256;7.534;2024-02-14T02:57:55;1.17;;;0.10;;
43837;SDS011;65998;46.256;7.534;2024-02-14T03:00:21;1.23;;;0.13;;
43837;SDS011;65998;46.256;7.534;2024-02-14T03:02:47;1.20;;;0.20;;
43837;SDS011;65998;46.256;7.534;2024-02-14T03:05:13;1.23;;;0.30;;
43837;SDS011;65998;46.256;7.534;2024-02-14T03:07:39;2.13;;;0.30;;
43837;SDS011;65998;46.256;7.534;2024-02-14T03:10:05;1.25;;;0.25;;
43837;SDS011;65998;46.256;7.534;2024-02-14T03:12:31;2.55;;;0.75;;
43837;SDS011;65998;46.256;7.534;2024-02-14T03:14:57;2.70;;;0.50;;
43837;SDS011;65998;46.256;7.534;2024-02-14T03:17:23;2.70;;;0.40;;
43837;SDS011;65998;46.256;7.534;2024-02-14T03:19:49;3.47;;;0.43;;
43837;SDS011;65998;46.256;7.534;2024-02-14T03:22:14;4.10;;;0.30;;
43837;SDS011;65998;46.256;7.534;2024-02-14T03:24:40;1.17;;;0.20;;
43837;SDS011;65998;46.256;7.534;2024-02-14T03:27:06;1.25;;;0.20;;
43837;SDS011;65998;46.256;7.534;2024-02-14T03:29:32;1.58;;;0.30;;
43837;SDS011;65998;46.256;7.534;2024-02-14T03:31:58;1.33;;;0.30;;
43837;SDS011;65998;46.256;7.534;2024-02-14T03:34:24;1.17;;;0.28;;
43837;SDS011;65998;46.256;7.534;2024-02-14T03:36:50;1.97;;;0.37;;
43837;SDS011;65998;46.256;7.534;2024-02-14T03:39:16;1.88;;;0.40;;
43837;SDS011;65998;46.256;7.534;2024-02-14T03:41:42;1.53;;;0.30;;
43837;SDS011;65998;46.256;7.534;2024-02-14T03:44:08;3.45;;;0.38;;
43837;SDS011;65998;46.256;7.534;2024-02-14T03:46:33;1.63;;;0.30;;
43837;SDS011;65998;46.256;7.534;2024-02-14T03:49:02;1.67;;;0.30;;
43837;SDS011;65998;46.256;7.534;2024-02-14T03:51:28;1.75;;;0.30;;
43837;SDS011;65998;46.256;7.534;2024-02-14T03:53:54;1.38;;;0.20;;
43837;SDS011;65998;46.256;7.534;2024-02-14T03:56:19;1.63;;;0.30;;
43837;SDS011;65998;46.256;7.534;2024-02-14T03:58:45;1.65;;;0.22;;
43837;SDS011;65998;46.256;7.534;2024-02-14T04:01:11;1.43;;;0.30;;
43837;SDS011;65998;46.256;7.534;2024-02-14T04:03:37;1.38;;;0.28;;
43837;SDS011;65998;46.256;7.534;2024-02-14T04:06:03;2.05;;;0.45;;
43837;SDS011;65998;46.256;7.534;2024-02-14T04:08:29;2.10;;;0.30;;
43837;SDS011;65998;46.256;7.534;2024-02-14T04:10:54;3.17;;;0.20;;
43837;SDS011;65998;46.256;7.534;2024-02-14T04:13:20;1.20;;;0.20;;
43837;SDS011;65998;46.256;7.534;2024-02-14T04:15:47;0.93;;;0.10;;
43837;SDS011;65998;46.256;7.534;2024-02-14T04:18:13;1.85;;;0.40;;
43837;SDS011;65998;46.256;7.534;2024-02-14T04:20:39;4.10;;;0.40;;
43837;SDS011;65998;46.256;7.534;2024-02-14T04:23:05;1.70;;;0.30;;
43837;SDS011;65998;46.256;7.534;2024-02-14T04:25:31;1.55;;;0.30;;
43837;SDS011;65998;46.256;7.534;2024-02-14T04:27:57;2.58;;;0.40;;
43837;SDS011;65998;46.256;7.534;2024-02-14T04:30:22;1.77;;;0.50;;
43837;SDS011;65998;46.256;7.534;2024-02-14T04:32:48;2.53;;;0.30;;
43837;SDS011;65998;46.256;7.534;2024-02-14T04:35:14;1.20;;;0.20;;
43837;SDS011;65998;46.256;7.534;2024-02-14T04:37:40;1.20;;;0.20;;
43837;SDS011;65998;46.256;7.534;2024-02-14T04:40:06;1.00;;;0.13;;
43837;SDS011;65998;46.256;7.534;2024-02-14T04:42:33;0.90;;;0.10;;
43837;SDS011;65998;46.256;7.534;2024-02-14T04:44:58;0.70;;;0.10;;
43837;SDS011;65998;46.256;7.534;2024-02-14T04:47:24;4.43;;;0.20;;
43837;SDS011;65998;46.256;7.534;2024-02-14T04:49:50;0.83;;;0.10;;
43837;SDS011;65998;46.256;7.534;2024-02-14T04:52:16;0.95;;;0.13;;
43837;SDS011;65998;46.256;7.534;2024-02-14T04:54:41;2.90;;;0.27;;
43837;SDS011;65998;46.256;7.534;2024-02-14T04:57:07;2.90;;;1.00;;
43837;SDS011;65998;46.256;7.534;2024-02-14T04:59:33;2.97;;;0.90;;
43837;SDS011;65998;46.256;7.534;2024-02-14T05:01:59;3.67;;;0.60;;
43837;SDS011;65998;46.256;7.534;2024-02-14T05:04:24;2.87;;;0.40;;
43837;SDS011;65998;46.256;7.534;2024-02-14T05:06:50;1.10;;;0.10;;
43837;SDS011;65998;46.256;7.534;2024-02-14T05:09:16;1.90;;;0.50;;
43837;SDS011;65998;46.256;7.534;2024-02-14T05:11:42;15.40;;;4.32;;
43837;SDS011;65998;46.256;7.534;2024-02-14T05:14:07;23.35;;;7.13;;
43837;SDS011;65998;46.256;7.534;2024-02-14T05:16:33;10.73;;;3.07;;
43837;SDS011;65998;46.256;7.534;2024-02-14T05:18:59;7.90;;;2.17;;
43837;SDS011;65998;46.256;7.534;2024-02-14T05:21:25;2.90;;;0.57;;
43837;SDS011;65998;46.256;7.534;2024-02-14T05:23:50;2.38;;;0.40;;
43837;SDS011;65998;46.256;7.534;2024-02-14T05:26:16;2.08;;;0.30;;
43837;SDS011;65998;46.256;7.534;2024-02-14T05:28:42;4.23;;;0.60;;
43837;SDS011;65998;46.256;7.534;2024-02-14T05:31:08;1.95;;;0.35;;
43837;SDS011;65998;46.256;7.534;2024-02-14T05:33:34;41.70;;;12.17;;
43837;SDS011;65998;46.256;7.534;2024-02-14T05:36:00;15.25;;;4.78;;
43837;SDS011;65998;46.256;7.534;2024-02-14T05:38:25;7.13;;;2.00;;
43837;SDS011;65998;46.256;7.534;2024-02-14T05:40:51;5.35;;;0.80;;
43837;SDS011;65998;46.256;7.534;2024-02-14T05:43:17;4.27;;;1.00;;
43837;SDS011;65998;46.256;7.534;2024-02-14T05:45:43;2.47;;;0.55;;
43837;SDS011;65998;46.256;7.534;2024-02-14T05:48:09;1.88;;;0.25;;
43837;SDS011;65998;46.256;7.534;2024-02-14T05:50:35;1.60;;;0.30;;
43837;SDS011;65998;46.256;7.534;2024-02-14T05:53:00;1.95;;;0.68;;
43837;SDS011;65998;46.256;7.534;2024-02-14T05:55:27;3.45;;;0.70;;
43837;SDS011;65998;46.256;7.534;2024-02-14T05:57:52;3.50;;;0.40;;
43837;SDS011;65998;46.256;7.534;2024-02-14T06:00:19;1.75;;;0.20;;
43837;SDS011;65998;46.256;7.534;2024-02-14T06:02:46;2.70;;;0.30;;
43837;SDS011;65998;46.256;7.534;2024-02-14T06:05:13;1.58;;;0.30;;
43837;SDS011;65998;46.256;7.534;2024-02-14T06:07:39;2.13;;;0.30;;
43837;SDS011;65998;46.256;7.534;2024-02-14T06:10:06;2.17;;;0.38;;
43837;SDS011;65998;46.256;7.534;2024-02-14T06:12:33;2.42;;;0.30;;
43837;SDS011;65998;46.256;7.534;2024-02-14T06:15:00;5.33;;;1.10;;
43837;SDS011;65998;46.256;7.534;2024-02-14T06:17:26;18.90;;;5.10;;
43837;SDS011;65998;46.256;7.534;2024-02-14T06:19:52;22.55;;;6.07;;
43837;SDS011;65998;46.256;7.534;2024-02-14T06:22:18;4.93;;;1.20;;
43837;SDS011;65998;46.256;7.534;2024-02-14T06:24:44;5.60;;;1.48;;
43837;SDS011;65998;46.256;7.534;2024-02-14T06:27:10;5.10;;;0.90;;
43837;SDS011;65998;46.256;7.534;2024-02-14T06:29:36;2.88;;;0.60;;
43837;SDS011;65998;46.256;7.534;2024-02-14T06:32:02;3.83;;;0.83;;
43837;SDS011;65998;46.256;7.534;2024-02-14T06:34:28;1.67;;;0.40;;
43837;SDS011;65998;46.256;7.534;2024-02-14T06:36:54;1.93;;;0.50;;
43837;SDS011;65998;46.256;7.534;2024-02-14T06:39:20;2.28;;;0.38;;
43837;SDS011;65998;46.256;7.534;2024-02-14T06:41:46;2.10;;;0.73;;
43837;SDS011;65998;46.256;7.534;2024-02-14T06:44:12;2.50;;;0.77;;
43837;SDS011;65998;46.256;7.534;2024-02-14T06:46:37;2.75;;;0.60;;
43837;SDS011;65998;46.256;7.534;2024-02-14T06:49:04;2.50;;;0.50;;
43837;SDS011;65998;46.256;7.534;2024-02-14T06:51:30;2.20;;;0.60;;
43837;SDS011;65998;46.256;7.534;2024-02-14T06:53:56;3.53;;;1.10;;
43837;SDS011;65998;46.256;7.534;2024-02-14T06:56:22;2.22;;;0.82;;
43837;SDS011;65998;46.256;7.534;2024-02-14T06:58:48;1.87;;;0.50;;
43837;SDS011;65998;46.256;7.534;2024-02-14T07:01:13;6.68;;;1.73;;
43837;SDS011;65998;46.256;7.534;2024-02-14T07:03:39;10.60;;;2.80;;
43837;SDS011;65998;46.256;7.534;2024-02-14T07:06:05;11.07;;;3.63;;
43837;SDS011;65998;46.256;7.534;2024-02-14T07:08:31;8.77;;;2.78;;
43837;SDS011;65998;46.256;7.534;2024-02-14T07:10:57;13.90;;;6.20;;
43837;SDS011;65998;46.256;7.534;2024-02-14T07:13:22;7.57;;;3.22;;
43837;SDS011;65998;46.256;7.534;2024-02-14T07:15:48;5.23;;;2.40;;
43837;SDS011;65998;46.256;7.534;2024-02-14T07:18:14;16.30;;;9.77;;
43837;SDS011;65998;46.256;7.534;2024-02-14T07:20:40;13.00;;;8.20;;
43837;SDS011;65998;46.256;7.534;2024-02-14T07:23:06;10.25;;;6.88;;
43837;SDS011;65998;46.256;7.534;2024-02-14T07:25:31;5.00;;;2.33;;
43837;SDS011;65998;46.256;7.534;2024-02-14T07:27:57;3.55;;;0.93;;
43837;SDS011;65998;46.256;7.534;2024-02-14T07:30:23;5.57;;;0.80;;
43837;SDS011;65998;46.256;7.534;2024-02-14T07:32:49;11.35;;;3.10;;
43837;SDS011;65998;46.256;7.534;2024-02-14T07:35:15;7.43;;;2.67;;
43837;SDS011;65998;46.256;7.534;2024-02-14T07:37:41;11.48;;;3.40;;
43837;SDS011;65998;46.256;7.534;2024-02-14T07:40:06;10.15;;;4.03;;
43837;SDS011;65998;46.256;7.534;2024-02-14T07:42:33;6.32;;;1.55;;
43837;SDS011;65998;46.256;7.534;2024-02-14T07:44:58;2.70;;;0.90;;
43837;SDS011;65998;46.256;7.534;2024-02-14T07:47:24;3.28;;;0.73;;
43837;SDS011;65998;46.256;7.534;2024-02-14T07:49:50;3.07;;;0.63;;
43837;SDS011;65998;46.256;7.534;2024-02-14T07:52:16;3.55;;;0.82;;
43837;SDS011;65998;46.256;7.534;2024-02-14T07:54:42;3.70;;;0.80;;
43837;SDS011;65998;46.256;7.534;2024-02-14T07:57:08;5.25;;;1.20;;
43837;SDS011;65998;46.256;7.534;2024-02-14T07:59:33;19.40;;;2.28;;
43837;SDS011;65998;46.256;7.534;2024-02-14T08:01:59;9.60;;;2.45;;
43837;SDS011;65998;46.256;7.534;2024-02-14T08:04:25;10.88;;;1.67;;
43837;SDS011;65998;46.256;7.534;2024-02-14T08:06:51;8.43;;;1.80;;
43837;SDS011;65998;46.256;7.534;2024-02-14T08:09:16;3.63;;;1.23;;
43837;SDS011;65998;46.256;7.534;2024-02-14T08:11:42;2.28;;;0.60;;
43837;SDS011;65998;46.256;7.534;2024-02-14T08:14:08;2.23;;;0.60;;
43837;SDS011;65998;46.256;7.534;2024-02-14T08:16:34;4.78;;;0.57;;
43837;SDS011;65998;46.256;7.534;2024-02-14T08:18:59;3.17;;;0.60;;
43837;SDS011;65998;46.256;7.534;2024-02-14T08:21:26;3.28;;;1.00;;
43837;SDS011;65998;46.256;7.534;2024-02-14T08:23:52;2.20;;;0.70;;
43837;SDS011;65998;46.256;7.534;2024-02-14T08:26:19;2.73;;;0.70;;
43837;SDS011;65998;46.256;7.534;2024-02-14T08:28:45;2.33;;;0.50;;
43837;SDS011;65998;46.256;7.534;2024-02-14T08:31:11;4.22;;;0.40;;
43837;SDS011;65998;46.256;7.534;2024-02-14T08:33:37;1.50;;;0.30;;
43837;SDS011;65998;46.256;7.534;2024-02-14T08:36:03;2.03;;;0.38;;
43837;SDS011;65998;46.256;7.534;2024-02-14T08:38:30;2.13;;;0.40;;
43837;SDS011;65998;46.256;7.534;2024-02-14T08:40:56;3.17;;;0.40;;
43837;SDS011;65998;46.256;7.534;2024-02-14T08:43:22;4.33;;;1.20;;
43837;SDS011;65998;46.256;7.534;2024-02-14T08:45:48;13.45;;;3.70;;
43837;SDS011;65998;46.256;7.534;2024-02-14T08:48:13;27.53;;;8.50;;
43837;SDS011;65998;46.256;7.534;2024-02-14T08:50:39;4.63;;;1.13;;
43837;SDS011;65998;46.256;7.534;2024-02-14T08:53:05;1.53;;;0.50;;
43837;SDS011;65998;46.256;7.534;2024-02-14T08:55:31;2.15;;;0.20;;
43837;SDS011;65998;46.256;7.534;2024-02-14T08:57:56;1.83;;;0.20;;
43837;SDS011;65998;46.256;7.534;2024-02-14T09:00:23;1.40;;;0.20;;
43837;SDS011;65998;46.256;7.534;2024-02-14T09:02:50;1.50;;;0.20;;
43837;SDS011;65998;46.256;7.534;2024-02-14T09:05:17;3.17;;;0.20;;
43837;SDS011;65998;46.256;7.534;2024-02-14T09:07:43;1.53;;;0.30;;
43837;SDS011;65998;46.256;7.534;2024-02-14T09:10:09;2.10;;;0.30;;
43837;SDS011;65998;46.256;7.534;2024-02-14T09:12:35;1.77;;;0.28;;
43837;SDS011;65998;46.256;7.534;2024-02-14T09:15:01;1.45;;;0.30;;
43837;SDS011;65998;46.256;7.534;2024-02-14T09:17:27;3.73;;;0.20;;
43837;SDS011;65998;46.256;7.534;2024-02-14T09:19:53;4.43;;;0.40;;
43837;SDS011;65998;46.256;7.534;2024-02-14T09:22:18;3.60;;;0.30;;
43837;SDS011;65998;46.256;7.534;2024-02-14T09:24:44;1.40;;;0.40;;
43837;SDS011;65998;46.256;7.534;2024-02-14T09:27:10;1.97;;;0.40;;
43837;SDS011;65998;46.256;7.534;2024-02-14T09:29:36;1.92;;;0.30;;
43837;SDS011;65998;46.256;7.534;2024-02-14T09:32:02;2.13;;;0.40;;
43837;SDS011;65998;46.256;7.534;2024-02-14T09:34:28;1.45;;;0.30;;
43837;SDS011;65998;46.256;7.534;2024-02-14T09:36:53;1.60;;;0.30;;
43837;SDS011;65998;46.256;7.534;2024-02-14T09:39:19;1.88;;;0.40;;
43837;SDS011;65998;46.256;7.534;2024-02-14T09:41:46;2.47;;;0.40;;
43837;SDS011;65998;46.256;7.534;2024-02-14T09:44:18;1.60;;;0.30;;
43837;SDS011;65998;46.256;7.534;2024-02-14T09:46:46;2.08;;;0.40;;
43837;SDS011;65998;46.256;7.534;2024-02-14T09:49:12;2.45;;;0.52;;
43837;SDS011;65998;46.256;7.534;2024-02-14T09:51:41;1.75;;;0.40;;
43837;SDS011;65998;46.256;7.534;2024-02-14T09:54:10;2.17;;;0.40;;
43837;SDS011;65998;46.256;7.534;2024-02-14T09:56:36;1.70;;;0.40;;
43837;SDS011;65998;46.256;7.534;2024-02-14T09:59:02;1.98;;;0.47;;
43837;SDS011;65998;46.256;7.534;2024-02-14T10:01:28;1.50;;;0.35;;
43837;SDS011;65998;46.256;7.534;2024-02-14T10:03:54;2.97;;;0.50;;
43837;SDS011;65998;46.256;7.534;2024-02-14T10:06:20;1.77;;;0.40;;
43837;SDS011;65998;46.256;7.534;2024-02-14T10:08:47;1.92;;;0.40;;
43837;SDS011;65998;46.256;7.534;2024-02-14T10:11:13;2.40;;;0.52;;
43837;SDS011;65998;46.256;7.534;2024-02-14T10:13:39;4.13;;;0.53;;
43837;SDS011;65998;46.256;7.534;2024-02-14T10:16:05;1.85;;;0.38;;
43837;SDS011;65998;46.256;7.534;2024-02-14T10:18:31;2.10;;;0.50;;
43837;SDS011;65998;46.256;7.534;2024-02-14T10:20:57;2.57;;;0.40;;
43837;SDS011;65998;46.256;7.534;2024-02-14T10:23:23;1.88;;;0.50;;
43837;SDS011;65998;46.256;7.534;2024-02-14T10:25:49;2.45;;;0.40;;
43837;SDS011;65998;46.256;7.534;2024-02-14T10:28:16;2.77;;;0.70;;
43837;SDS011;65998;46.256;7.534;2024-02-14T10:30:45;1.75;;;0.40;;
43837;SDS011;65998;46.256;7.534;2024-02-14T10:33:11;1.80;;;0.50;;
43837;SDS011;65998;46.256;7.534;2024-02-14T10:35:37;1.70;;;0.40;;
43837;SDS011;65998;46.256;7.534;2024-02-14T10:38:04;3.13;;;0.60;;
43837;SDS011;65998;46.256;7.534;2024-02-14T10:40:31;3.00;;;0.60;;
43837;SDS011;65998;46.256;7.534;2024-02-14T10:42:57;2.10;;;0.57;;
43837;SDS011;65998;46.256;7.534;2024-02-14T10:45:24;1.77;;;0.50;;
43837;SDS011;65998;46.256;7.534;2024-02-14T10:47:50;2.85;;;0.77;;
43837;SDS011;65998;46.256;7.534;2024-02-14T10:50:17;2.17;;;0.80;;
43837;SDS011;65998;46.256;7.534;2024-02-14T10:52:46;2.10;;;0.50;;
43837;SDS011;65998;46.256;7.534;2024-02-14T10:55:14;2.30;;;0.60;;
43837;SDS011;65998;46.256;7.534;2024-02-14T10:57:45;3.00;;;0.75;;
43837;SDS011;65998;46.256;7.534;2024-02-14T11:00:12;2.67;;;0.77;;
43837;SDS011;65998;46.256;7.534;2024-02-14T11:02:41;3.20;;;1.27;;
43837;SDS011;65998;46.256;7.534;2024-02-14T11:05:16;2.20;;;0.70;;
43837;SDS011;65998;46.256;7.534;2024-02-14T11:07:47;3.88;;;1.00;;
43837;SDS011;65998;46.256;7.534;2024-02-14T11:10:13;2.45;;;0.60;;
43837;SDS011;65998;46.256;7.534;2024-02-14T11:12:41;3.53;;;0.88;;
43837;SDS011;65998;46.256;7.534;2024-02-14T11:15:11;1.77;;;0.50;;
43837;SDS011;65998;46.256;7.534;2024-02-14T11:17:48;3.15;;;0.50;;
43837;SDS011;65998;46.256;7.534;2024-02-14T11:20:31;1.30;;;0.32;;
43837;SDS011;65998;46.256;7.534;2024-02-14T11:23:01;1.77;;;0.35;;
43837;SDS011;65998;46.256;7.534;2024-02-14T11:25:32;1.93;;;0.50;;
43837;SDS011;65998;46.256;7.534;2024-02-14T11:27:59;2.85;;;0.60;;
43837;SDS011;65998;46.256;7.534;2024-02-14T11:30:29;1.70;;;0.50;;
43837;SDS011;65998;46.256;7.534;2024-02-14T11:33:07;1.77;;;0.38;;
43837;SDS011;65998;46.256;7.534;2024-02-14T11:35:42;2.03;;;0.47;;
43837;SDS011;65998;46.256;7.534;2024-02-14T11:38:09;1.90;;;0.50;;
43837;SDS011;65998;46.256;7.534;2024-02-14T11:40:35;2.40;;;0.60;;
43837;SDS011;65998;46.256;7.534;2024-02-14T11:43:02;1.60;;;0.50;;
43837;SDS011;65998;46.256;7.534;2024-02-14T11:45:27;2.00;;;0.55;;
43837;SDS011;65998;46.256;7.534;2024-02-14T11:47:54;1.83;;;0.40;;
43837;SDS011;65998;46.256;7.534;2024-02-14T11:50:19;2.10;;;0.50;;
43837;SDS011;65998;46.256;7.534;2024-02-14T11:52:46;2.35;;;0.63;;
43837;SDS011;65998;46.256;7.534;2024-02-14T11:55:12;2.20;;;0.57;;
43837;SDS011;65998;46.256;7.534;2024-02-14T11:57:38;3.20;;;0.47;;
43837;SDS011;65998;46.256;7.534;2024-02-14T12:00:03;1.92;;;0.57;;
43837;SDS011;65998;46.256;7.534;2024-02-14T12:02:30;2.60;;;0.60;;
43837;SDS011;65998;46.256;7.534;2024-02-14T12:04:56;1.95;;;0.50;;
43837;SDS011;65998;46.256;7.534;2024-02-14T12:07:22;1.95;;;0.50;;
43837;SDS011;65998;46.256;7.534;2024-02-14T12:09:49;2.80;;;0.60;;
43837;SDS011;65998;46.256;7.534;2024-02-14T12:12:15;2.20;;;0.60;;
43837;SDS011;65998;46.256;7.534;2024-02-14T12:14:43;2.00;;;0.63;;
43837;SDS011;65998;46.256;7.534;2024-02-14T12:17:09;2.17;;;0.80;;
43837;SDS011;65998;46.256;7.534;2024-02-14T12:19:35;1.80;;;0.70;;
43837;SDS011;65998;46.256;7.534;2024-02-14T12:22:01;1.90;;;0.50;;
43837;SDS011;65998;46.256;7.534;2024-02-14T12:24:27;3.40;;;1.07;;
43837;SDS011;65998;46.256;7.534;2024-02-14T12:26:54;1.92;;;0.60;;
43837;SDS011;65998;46.256;7.534;2024-02-14T12:29:19;2.70;;;0.90;;
43837;SDS011;65998;46.256;7.534;2024-02-14T12:31:45;4.53;;;1.03;;
43837;SDS011;65998;46.256;7.534;2024-02-14T12:34:11;2.20;;;0.75;;
43837;SDS011;65998;46.256;7.534;2024-02-14T12:36:37;3.47;;;0.80;;
43837;SDS011;65998;46.256;7.534;2024-02-14T12:39:03;2.43;;;0.80;;
43837;SDS011;65998;46.256;7.534;2024-02-14T12:41:29;2.22;;;0.65;;
43837;SDS011;65998;46.256;7.534;2024-02-14T12:43:56;2.22;;;0.70;;
43837;SDS011;65998;46.256;7.534;2024-02-14T12:46:23;1.50;;;0.30;;
43837;SDS011;65998;46.256;7.534;2024-02-14T12:48:49;2.10;;;0.30;;
43837;SDS011;65998;46.256;7.534;2024-02-14T12:51:15;1.60;;;0.30;;
43837;SDS011;65998;46.256;7.534;2024-02-14T12:53:41;1.40;;;0.23;;
43837;SDS011;65998;46.256;7.534;2024-02-14T12:56:07;2.10;;;0.30;;
43837;SDS011;65998;46.256;7.534;2024-02-14T12:58:33;2.20;;;0.37;;
43837;SDS011;65998;46.256;7.534;2024-02-14T13:00:59;2.17;;;0.28;;
43837;SDS011;65998;46.256;7.534;2024-02-14T13:03:25;2.30;;;0.30;;
43837;SDS011;65998;46.256;7.534;2024-02-14T13:05:52;1.20;;;0.20;;
43837;SDS011;65998;46.256;7.534;2024-02-14T13:08:18;1.97;;;0.30;;
43837;SDS011;65998;46.256;7.534;2024-02-14T13:10:44;1.30;;;0.30;;
43837;SDS011;65998;46.256;7.534;2024-02-14T13:13:09;1.70;;;0.47;;
43837;SDS011;65998;46.256;7.534;2024-02-14T13:15:36;1.80;;;0.50;;
43837;SDS011;65998;46.256;7.534;2024-02-14T13:18:02;2.50;;;0.80;;
43837;SDS011;65998;46.256;7.534;2024-02-14T13:20:28;1.90;;;0.60;;
43837;SDS011;65998;46.256;7.534;2024-02-14T13:22:54;2.30;;;0.40;;
43837;SDS011;65998;46.256;7.534;2024-02-14T13:25:21;2.15;;;0.50;;
43837;SDS011;65998;46.256;7.534;2024-02-14T13:27:47;3.28;;;1.25;;
43837;SDS011;65998;46.256;7.534;2024-02-14T13:30:13;2.33;;;0.20;;
43837;SDS011;65998;46.256;7.534;2024-02-14T13:32:39;0.90;;;0.13;;
43837;SDS011;65998;46.256;7.534;2024-02-14T13:35:05;1.40;;;0.30;;
43837;SDS011;65998;46.256;7.534;2024-02-14T13:37:32;1.35;;;0.30;;
43837;SDS011;65998;46.256;7.534;2024-02-14T13:39:58;2.08;;;0.47;;
43837;SDS011;65998;46.256;7.534;2024-02-14T13:42:24;2.10;;;0.60;;
43837;SDS011;65998;46.256;7.534;2024-02-14T13:44:50;2.75;;;0.45;;
43837;SDS011;65998;46.256;7.534;2024-02-14T13:47:18;1.83;;;0.30;;
43837;SDS011;65998;46.256;7.534;2024-02-14T13:49:44;1.45;;;0.30;;
43837;SDS011;65998;46.256;7.534;2024-02-14T13:52:10;2.43;;;0.50;;
43837;SDS011;65998;46.256;7.534;2024-02-14T13:54:36;1.90;;;0.40;;
43837;SDS011;65998;46.256;7.534;2024-02-14T13:57:02;2.83;;;0.40;;
43837;SDS011;65998;46.256;7.534;2024-02-14T13:59:28;2.87;;;0.23;;
43837;SDS011;65998;46.256;7.534;2024-02-14T14:01:54;2.10;;;0.20;;
43837;SDS011;65998;46.256;7.534;2024-02-14T14:04:20;1.35;;;0.20;;
43837;SDS011;65998;46.256;7.534;2024-02-14T14:06:46;1.03;;;0.20;;
43837;SDS011;65998;46.256;7.534;2024-02-14T14:09:13;1.63;;;0.30;;
43837;SDS011;65998;46.256;7.534;2024-02-14T14:11:39;1.70;;;0.50;;
43837;SDS011;65998;46.256;7.534;2024-02-14T14:14:05;2.13;;;0.40;;
43837;SDS011;65998;46.256;7.534;2024-02-14T14:16:31;2.15;;;0.30;;
43837;SDS011;65998;46.256;7.534;2024-02-14T14:18:57;2.10;;;0.40;;
43837;SDS011;65998;46.256;7.534;2024-02-14T14:21:23;1.80;;;0.30;;
43837;SDS011;65998;46.256;7.534;2024-02-14T14:23:49;1.98;;;0.30;;
43837;SDS011;65998;46.256;7.534;2024-02-14T14:26:14;2.03;;;0.30;;
43837;SDS011;65998;46.256;7.534;2024-02-14T14:28:40;1.80;;;0.30;;
43837;SDS011;65998;46.256;7.534;2024-02-14T14:31:06;1.52;;;0.30;;
43837;SDS011;65998;46.256;7.534;2024-02-14T14:33:32;2.58;;;0.40;;
43837;SDS011;65998;46.256;7.534;2024-02-14T14:35:57;2.53;;;0.40;;
43837;SDS011;65998;46.256;7.534;2024-02-14T14:38:23;4.03;;;0.50;;
43837;SDS011;65998;46.256;7.534;2024-02-14T14:40:49;2.50;;;0.60;;